Date,TemperatureHighF,TemperatureAvgF,TemperatureLowF,DewpointHighF,DewpointAvgF,DewpointLowF,HumidityHigh,HumidityAvg,HumidityLow,PressureMaxIn,PressureMinIn,WindSpeedMaxMPH,WindSpeedAvgMPH,GustSpeedMaxMPH,PrecipitationSumIn
2013-11-1,53,40,28,33,27,20,86,64,35,25.49,25.36,13,3,13,0.05
2013-11-2,58,38,26,34,30,24,94,77,36,25.44,24.97,17,2,17,0.04
2013-11-3,44,33,27,32,23,15,97,69,46,25.48,25.05,9,2,9,0.00
2013-11-4,32,27,25,24,21,15,93,81,49,25.54,25.46,5,1,5,0.00
2013-11-5,25,25,25,24,24,24,93,93,93,25.54,25.54,0,0,0,0.00
2013-11-6,25,25,25,24,24,24,93,93,93,25.54,25.54,0,0,0,0.00
2013-11-7,46,38,35,37,33,29,87,81,71,25.15,25.03,21,5,21,0.06
2013-11-8,43,36,32,30,27,24,90,72,53,25.42,25.13,10,2,10,0.02
2013-11-9,46,33,24,29,24,20,88,71,36,25.49,25.41,8,1,8,0.00
2013-11-10,44,35,29,32,28,24,87,76,59,25.50,25.39,5,1,5,0.00
2013-11-11,46,35,29,34,29,25,88,79,63,25.68,25.49,5,1,5,0.05
2013-11-12,50,38,23,37,30,22,96,76,53,25.64,25.53,6,1,6,0.00
2013-11-13,53,41,33,37,28,22,88,62,41,25.55,25.45,26,3,18,0.00
2013-11-14,47,35,25,27,22,17,91,59,30,25.50,25.11,8,1,8,0.05
2013-11-15,42,36,25,22,18,16,80,50,38,25.10,24.75,15,3,15,0.00
2013-11-16,42,34,27,25,20,14,73,57,42,25.24,24.64,23,2,23,0.05
2013-11-17,38,32,24,21,16,12,63,52,39,25.25,24.93,8,2,8,0.00
2013-11-18,53,38,24,19,15,12,61,41,21,25.26,25.09,17,3,17,0.00
2013-11-19,56,45,32,30,25,18,59,46,32,25.09,24.96,16,4,16,0.00
2013-11-20,44,13,-4,30,5,-8,83,71,49,25.55,25.02,15,3,15,0.00
2013-11-21,21,5,-6,9,-1,-10,84,77,57,25.75,25.55,8,0,8,0.00
2013-11-22,30,12,2,12,5,-2,86,73,43,25.82,25.74,6,0,6,0.00
2013-11-23,33,15,5,15,8,1,87,75,45,25.80,25.07,5,0,5,0.14
2013-11-24,41,24,10,22,15,6,88,71,44,25.51,25.41,6,1,6,0.01
2013-11-25,45,27,16,24,18,13,87,71,43,25.64,25.52,5,1,5,0.00
2013-11-26,42,27,16,27,20,14,92,77,50,25.64,25.41,6,0,6,0.00
2013-11-27,46,31,21,28,22,17,84,73,46,25.42,25.36,4,0,4,0.00
2013-11-28,43,25,15,26,18,13,92,77,47,25.41,25.33,4,1,4,0.00
2013-11-29,47,30,17,26,20,15,90,71,38,25.45,25.36,8,1,8,0.00
2013-11-30,46,38,33,31,28,24,75,68,50,25.48,25.41,6,1,6,0.00